Edwards, CO (81632)

12:19 PM MST on December 06, 2016 (GMT -0700)
WildRidge - Neighborhood | | Change Station
Active Advisory: Winter Weather Advisory

Elev 8156 ft 39.66 °N, 106.55 °W | Updated 9 minutes ago

Overcast
Overcast
21.4 °F
Feels Like 21 °F
N
0.0
Wind Variable Wind from SSW
Gusts 4.0 mph

Today
High -- | Low -- °F
--% Chance of Precip.
Yesterday
High -- | Low -- °F
Precip. -- in
Pressure 29.81 in
Visibility 10.0 miles
Clouds Overcast 11000 ft
Windchill 21 °F
Dew Point 15 °F
Humidity 77%
Rainfall 0.00 in
Snow Depth Not available.
7:13 AM 4:42 PM
Waxing Crescent, 44% visible
METAR KEGE 061850Z 00000KT 10SM OVC110 M06/M13 A2981
Pressure 29.81 in
Visibility 10.0 miles
Clouds Overcast 11000 ft
Windchill 21 °F
Dew Point 15 °F
Humidity 77%
Rainfall 0.00 in
Snow Depth Not available.
7:13 AM 4:42 PM
Waxing Crescent, 44% visible
METAR KEGE 061850Z 00000KT 10SM OVC110 M06/M13 A2981

10-Day Weather Forecast

Almanac

Astronomy

Dec. 06, 2016 Rise Set
Actual Time
Civil Twilight
Nautical Twilight
Astronomical Twilight
Moon
Length of Visible Light
Length of Day
Tomorrow will be .
, % of the Moon is Illuminated

Today's Extremes

State Highs State Lows

Community

WunderPhotos

Upload Photos

1,955,986 photos uploaded!

WunderBlog® & News

Nearby

Air Quality

  Air Quality AQ Index Pollutant
Not available.

Snow Depth

Station Depth Elevation

Earthquake Activity

City Distance Mag. Time & Date
Minimum magnitude displayed is 2.5.

Coastal Water Temperatures

Place Temperature

Stations

Nearby Weather Stations

Station Location Temp. Windchill Dew Point Humidity Wind Precip. Elev Updated Type
                   

Watches & Warnings

Winter Weather Advisory
Issued: 8:10 AM MST Dec. 6, 2016 – National Weather Service

... Winter Weather Advisory remains in effect from 3 PM this
afternoon to 6 am MST Wednesday...

* locations include the cities of... Eagle... Edwards... Glenwood
Springs... Carbondale... Basalt.

* Timing... snow will develop late this afternoon and continue
through tonight.

* Snow accumulation... 2 to 4 inches.

* Winds... west 5 to 10 mph with gusts to 25 mph.

* Impacts... low visibility in periods of snow and blowing snow
will make travel difficult with hazardous conditions expected
over Interstate 70 east of Glenwood Springs through this
evening.

Precautionary/preparedness actions...

A Winter Weather Advisory means that periods of snow and/or
blowing snow will cause travel difficulties. Be prepared for
slippery roads and limited visibilities... and use caution while
driving.